Time;durP1;ratioP1;P1;durP2;ratioP2;P2;SDS_P1;SDS_P2;PMS_P1;PMS_P2;Temp;Humidity;BMP_temperature;BMP_pressure;BME280_temperature;BME280_humidity;BME280_pressure;Samples;Min_cycle;Max_cycle;Signal;HPM_P1;HPM_P2
2024/02/14 00:01:18;;;;;;;;;;;;;;;21.27;36.84;100533.88;102806;1290;61394;-81
2024/02/14 00:03:44;;;;;;;;;;;;;;;21.26;36.75;100536.59;102729;1289;61370;-80
2024/02/14 00:06:11;;;;;;;;;;;;;;;21.26;36.77;100532.86;102900;1291;61406;-79
2024/02/14 00:08:38;;;;;;;;;;;;;;;21.26;36.70;100538.04;102860;1292;74155;-80
2024/02/14 00:11:03;;;;;;;;;;;;;;;21.26;36.66;100541.46;102865;1291;62424;-80
2024/02/14 00:13:29;;;;;;;;;;;;;;;21.26;36.68;100545.20;102983;1290;61417;-80
2024/02/14 00:15:56;;;;;;;;;;;;;;;21.26;36.65;100545.94;102809;1294;62333;-80
2024/02/14 00:18:22;;;;;;;;;;;;;;;21.25;36.68;100544.19;102705;1291;61350;-80
2024/02/14 00:20:48;;;;;;;;;;;;;;;21.25;36.72;100548.50;102771;1289;62451;-79
2024/02/14 00:23:14;;;;;;;;;;;;;;;21.25;36.74;100547.80;102846;1293;61427;-80
2024/02/14 00:25:39;;;;;;;;;;;;;;;21.25;36.62;100549.77;102760;1291;61533;-80
2024/02/14 00:28:05;;;;;;;;;;;;;;;21.24;36.84;100548.19;102821;1294;61414;-81
2024/02/14 00:30:31;;;;;;;;;;;;;;;21.24;36.68;100551.47;102629;1292;62062;-80
2024/02/14 00:32:57;;;;;;;;;;;;;;;21.24;36.73;100553.23;102756;1291;61445;-81
2024/02/14 00:35:23;;;;;;;;;;;;;;;21.24;36.74;100557.91;102767;1295;61407;-79
2024/02/14 00:37:49;;;;;;;;;;;;;;;21.23;36.67;100558.65;102725;1292;61436;-78
2024/02/14 00:40:15;;;;;;;;;;;;;;;21.23;36.66;100562.22;102846;1290;61404;-80
2024/02/14 00:42:40;;;;;;;;;;;;;;;21.23;36.69;100556.68;102994;1292;62965;-79
2024/02/14 00:45:08;;;;;;;;;;;;;;;21.23;36.54;100559.55;102838;1292;61328;-79
2024/02/14 00:47:34;;;;;;;;;;;;;;;21.23;36.67;100556.70;102677;1292;62524;-80
2024/02/14 00:50:00;;;;;;;;;;;;;;;21.23;36.62;100557.99;102732;1291;61395;-80
2024/02/14 00:52:25;;;;;;;;;;;;;;;21.23;36.47;100558.33;102839;1294;61283;-79
2024/02/14 00:54:51;;;;;;;;;;;;;;;21.22;36.58;100562.30;102878;1292;62415;-79
2024/02/14 00:57:17;;;;;;;;;;;;;;;21.22;36.50;100566.60;102873;1294;61311;-79
2024/02/14 00:59:43;;;;;;;;;;;;;;;21.22;36.54;100567.19;102740;1292;62577;-81
2024/02/14 01:02:09;;;;;;;;;;;;;;;21.21;36.47;100568.11;102768;1289;61325;-81
2024/02/14 01:04:36;;;;;;;;;;;;;;;21.21;36.56;100567.08;102871;1294;62478;-80
2024/02/14 01:07:03;;;;;;;;;;;;;;;21.20;36.53;100567.64;102718;1291;61723;-80
2024/02/14 01:09:29;;;;;;;;;;;;;;;21.20;36.48;100568.00;102662;1295;61371;-79
2024/02/14 01:11:54;;;;;;;;;;;;;;;21.20;36.51;100566.39;102672;1291;62240;-79
2024/02/14 01:14:21;;;;;;;;;;;;;;;21.20;36.51;100568.00;102684;1291;61821;-80
2024/02/14 01:16:47;;;;;;;;;;;;;;;21.20;36.42;100563.92;102684;1296;61430;-80
2024/02/14 01:19:13;;;;;;;;;;;;;;;21.20;36.42;100562.52;102731;1291;61413;-80
2024/02/14 01:21:39;;;;;;;;;;;;;;;21.20;36.49;100569.83;102652;1296;61393;-80
2024/02/14 01:24:05;;;;;;;;;;;;;;;21.19;36.48;100569.33;102648;1296;61430;-79
2024/02/14 01:26:32;;;;;;;;;;;;;;;21.19;36.41;100572.41;102751;1291;61337;-80
2024/02/14 01:28:57;;;;;;;;;;;;;;;21.19;36.39;100572.58;102787;1294;61415;-81
2024/02/14 01:31:23;;;;;;;;;;;;;;;21.19;36.36;100572.02;102728;1291;62703;-80
2024/02/14 01:33:48;;;;;;;;;;;;;;;21.19;36.28;100569.03;102709;1296;61394;-80
2024/02/14 01:36:14;;;;;;;;;;;;;;;21.19;36.34;100567.77;102624;1291;61421;-80
2024/02/14 01:38:39;;;;;;;;;;;;;;;21.19;36.43;100569.02;102699;1291;62262;-80
2024/02/14 01:41:05;;;;;;;;;;;;;;;21.18;36.33;100567.10;102500;1299;61351;-80
2024/02/14 01:43:31;;;;;;;;;;;;;;;21.18;36.30;100568.53;102442;1294;61903;-80
2024/02/14 01:45:58;;;;;;;;;;;;;;;21.18;36.35;100566.06;102362;1299;61505;-80
2024/02/14 01:48:23;;;;;;;;;;;;;;;21.18;36.21;100570.36;102416;1294;62125;-80
2024/02/14 01:50:49;;;;;;;;;;;;;;;21.17;36.39;100572.34;102372;1294;61586;-80
2024/02/14 01:53:15;;;;;;;;;;;;;;;21.18;36.40;100576.27;102529;1299;61514;-81
2024/02/14 01:55:41;;;;;;;;;;;;;;;21.17;36.35;100578.61;102557;1295;61372;-80
2024/02/14 01:58:08;;;;;;;;;;;;;;;21.17;36.28;100578.80;102544;1299;61343;-80
2024/02/14 02:00:34;;;;;;;;;;;;;;;21.17;36.34;100577.93;102541;1294;61372;-80
2024/02/14 02:02:59;;;;;;;;;;;;;;;21.17;36.28;100584.17;102487;1299;61345;-79
2024/02/14 02:05:25;;;;;;;;;;;;;;;21.17;36.22;100586.17;102511;1298;62848;-80
2024/02/14 02:07:51;;;;;;;;;;;;;;;21.16;36.10;100587.09;102527;1293;61398;-80
2024/02/14 02:10:17;;;;;;;;;;;;;;;21.16;36.27;100587.09;102523;1294;62684;-80
2024/02/14 02:12:42;;;;;;;;;;;;;;;21.16;36.26;100587.64;102693;1291;61848;-79
2024/02/14 02:15:12;;;;;;;;;;;;;;;21.16;36.27;100588.05;102805;1294;61408;-80
2024/02/14 02:17:39;;;;;;;;;;;;;;;21.16;36.19;100588.38;102688;1290;61672;-80
2024/02/14 02:20:06;;;;;;;;;;;;;;;21.16;36.17;100592.70;102719;1291;62646;-81
2024/02/14 02:22:35;;;;;;;;;;;;;;;21.15;36.17;100596.13;102728;1291;75653;-81
2024/02/14 02:25:07;;;;;;;;;;;;;;;21.16;36.15;100600.05;102819;1291;61330;-80
2024/02/14 02:27:37;;;;;;;;;;;;;;;21.15;36.13;100604.38;102621;1292;61389;-80
2024/02/14 02:30:04;;;;;;;;;;;;;;;21.16;36.09;100611.69;102768;1293;73394;-80
2024/02/14 02:32:30;;;;;;;;;;;;;;;21.15;36.17;100613.86;102749;1291;74447;-80
2024/02/14 02:34:56;;;;;;;;;;;;;;;21.15;36.05;100617.26;102733;1291;61420;-79
2024/02/14 02:37:22;;;;;;;;;;;;;;;21.15;36.07;100622.66;102728;1291;61417;-79
2024/02/14 02:39:48;;;;;;;;;;;;;;;21.15;36.09;100627.50;102743;1294;61413;-79
2024/02/14 02:42:14;;;;;;;;;;;;;;;21.15;36.11;100631.94;102744;1291;61934;-80
2024/02/14 02:44:39;;;;;;;;;;;;;;;21.15;36.12;100635.55;102791;1291;61394;-79
2024/02/14 02:47:05;;;;;;;;;;;;;;;21.15;36.03;100637.16;102782;1291;62550;-81
2024/02/14 02:49:30;;;;;;;;;;;;;;;21.14;35.99;100644.17;102773;1295;61398;-81
2024/02/14 02:51:56;;;;;;;;;;;;;;;21.14;36.13;100642.74;102942;1291;61915;-80
2024/02/14 02:54:23;;;;;;;;;;;;;;;21.14;36.12;100645.63;102721;1291;61411;-79
2024/02/14 02:56:49;;;;;;;;;;;;;;;21.14;36.00;100649.55;102700;1296;61421;-79
2024/02/14 02:59:16;;;;;;;;;;;;;;;21.14;36.10;100653.16;102774;1291;61410;-80
2024/02/14 03:01:42;;;;;;;;;;;;;;;21.13;35.98;100652.27;102718;1291;61518;-78
2024/02/14 03:04:08;;;;;;;;;;;;;;;21.13;36.04;100657.30;102706;1291;62398;-79
2024/02/14 03:06:33;;;;;;;;;;;;;;;21.13;35.86;100657.70;102759;1291;62099;-79
2024/02/14 03:08:59;;;;;;;;;;;;;;;21.13;36.00;100657.70;102696;1296;62644;-79
2024/02/14 03:11:27;;;;;;;;;;;;;;;21.13;36.06;100663.75;102686;1291;62159;-79
2024/02/14 03:13:53;;;;;;;;;;;;;;;21.12;35.98;100662.38;102677;1291;73462;-80
2024/02/14 03:16:18;;;;;;;;;;;;;;;21.13;35.95;100664.16;102648;1296;61394;-80
2024/02/14 03:18:44;;;;;;;;;;;;;;;21.12;35.93;100665.80;102675;1291;61448;-81
2024/02/14 03:21:11;;;;;;;;;;;;;;;21.11;35.88;100667.48;102803;1291;62345;-80
2024/02/14 03:23:37;;;;;;;;;;;;;;;21.12;35.85;100670.67;102658;1291;61435;-80
2024/02/14 03:26:07;;;;;;;;;;;;;;;21.12;35.82;100673.90;102689;1291;61668;-80
2024/02/14 03:28:33;;;;;;;;;;;;;;;21.11;35.88;100676.25;102591;1291;62262;-80
2024/02/14 03:30:58;;;;;;;;;;;;;;;21.11;35.91;100680.76;102687;1296;61302;-80
2024/02/14 03:33:24;;;;;;;;;;;;;;;21.12;35.79;100682.11;102667;1295;61422;-80
2024/02/14 03:35:51;;;;;;;;;;;;;;;21.11;35.91;100683.25;102703;1292;62063;-79
2024/02/14 03:38:26;;;;;;;;;;;;;;;21.10;35.94;100682.72;102721;1291;61390;-80
2024/02/14 03:40:52;;;;;;;;;;;;;;;21.10;35.82;100683.29;102663;1292;61396;-79
2024/02/14 03:43:17;;;;;;;;;;;;;;;21.10;35.74;100685.98;102729;1291;62571;-78
2024/02/14 03:45:43;;;;;;;;;;;;;;;21.10;35.74;100688.67;102659;1295;61416;-78
2024/02/14 03:48:11;;;;;;;;;;;;;;;21.10;35.90;100685.83;102678;1291;61509;-80
2024/02/14 03:50:38;;;;;;;;;;;;;;;21.09;35.83;100690.15;102759;1291;61381;-79
2024/02/14 03:53:03;;;;;;;;;;;;;;;21.09;35.73;100691.20;102695;1295;61434;-79
2024/02/14 03:55:30;;;;;;;;;;;;;;;21.09;35.84;100692.70;102691;1291;61477;-80
2024/02/14 03:57:56;;;;;;;;;;;;;;;21.09;35.78;100695.02;102654;1291;62461;-80
2024/02/14 04:00:22;;;;;;;;;;;;;;;21.08;35.76;100697.01;102701;1292;61421;-81
2024/02/14 04:02:48;;;;;;;;;;;;;;;21.08;35.68;100702.02;102756;1291;62189;-82
2024/02/14 04:05:14;;;;;;;;;;;;;;;21.08;35.78;100702.94;102671;1293;61443;-79
2024/02/14 04:07:40;;;;;;;;;;;;;;;21.08;35.65;100705.09;102923;1292;62160;-79
2024/02/14 04:10:06;;;;;;;;;;;;;;;21.08;35.73;100707.98;102912;1291;61849;-80
2024/02/14 04:12:31;;;;;;;;;;;;;;;21.07;35.76;100708.71;102189;1289;667096;-80
2024/02/14 04:14:58;;;;;;;;;;;;;;;21.07;35.68;100711.42;102667;1294;61465;-81
2024/02/14 04:17:24;;;;;;;;;;;;;;;21.08;35.79;100714.05;102789;1292;61476;-80
2024/02/14 04:19:50;;;;;;;;;;;;;;;21.08;35.72;100718.89;102678;1289;61351;-80
2024/02/14 04:22:15;;;;;;;;;;;;;;;21.07;35.73;100720.72;102689;1289;61518;-80
2024/02/14 04:24:41;;;;;;;;;;;;;;;21.07;35.57;100724.30;102728;1291;62166;-80
2024/02/14 04:27:07;;;;;;;;;;;;;;;21.06;35.83;100725.62;102849;1294;61330;-81
2024/02/14 04:29:33;;;;;;;;;;;;;;;21.06;35.53;100723.30;102665;1296;73351;-80
2024/02/14 04:31:59;;;;;;;;;;;;;;;21.06;35.58;100729.38;102837;1291;61402;-80
2024/02/14 04:34:25;;;;;;;;;;;;;;;21.06;35.58;100730.30;102732;1295;61393;-80
2024/02/14 04:36:51;;;;;;;;;;;;;;;21.06;35.53;100734.06;102814;1291;61407;-80
2024/02/14 04:39:17;;;;;;;;;;;;;;;21.06;35.55;100739.42;102884;1292;63022;-79
2024/02/14 04:41:42;;;;;;;;;;;;;;;21.06;35.49;100743.02;102784;1292;61470;-81
2024/02/14 04:44:08;;;;;;;;;;;;;;;21.05;35.61;100741.42;103068;1291;61428;-80
2024/02/14 04:46:34;;;;;;;;;;;;;;;21.06;35.55;100739.44;102972;1290;62466;-80
2024/02/14 04:49:02;;;;;;;;;;;;;;;21.05;35.48;100746.66;102920;1294;72468;-79
2024/02/14 04:51:29;;;;;;;;;;;;;;;21.05;35.58;100743.27;103021;1292;74309;-78
2024/02/14 04:53:58;;;;;;;;;;;;;;;21.04;35.65;100747.75;103049;1290;62682;-81
2024/02/14 04:56:25;;;;;;;;;;;;;;;21.04;35.55;100750.28;102874;1291;61368;-80
2024/02/14 04:58:51;;;;;;;;;;;;;;;21.04;35.73;100754.96;102826;1291;73390;-81
2024/02/14 05:01:18;;;;;;;;;;;;;;;21.03;35.62;100756.23;102758;1291;61502;-81
2024/02/14 05:03:44;;;;;;;;;;;;;;;21.04;35.64;100762.66;103391;1290;61414;-79
2024/02/14 05:06:10;;;;;;;;;;;;;;;21.03;35.81;100763.80;103579;1291;61430;-80
2024/02/14 05:08:35;;;;;;;;;;;;;;;21.03;35.91;100769.92;103847;1289;62254;-80
2024/02/14 05:11:01;;;;;;;;;;;;;;;21.03;35.93;100770.80;103759;1292;61833;-79
2024/02/14 05:13:26;;;;;;;;;;;;;;;21.02;35.90;100773.69;103350;1290;61512;-80
2024/02/14 05:15:51;;;;;;;;;;;;;;;21.03;35.86;100779.04;103301;1291;63015;-81
2024/02/14 05:18:17;;;;;;;;;;;;;;;21.02;35.88;100781.38;103173;1292;61411;-80
2024/02/14 05:20:43;;;;;;;;;;;;;;;21.02;35.80;100781.97;103072;1289;62202;-81
2024/02/14 05:23:09;;;;;;;;;;;;;;;21.02;35.79;100787.69;102888;1294;61434;-80
2024/02/14 05:25:34;;;;;;;;;;;;;;;21.02;35.77;100791.58;103071;1291;61318;-80
2024/02/14 05:28:00;;;;;;;;;;;;;;;21.03;35.88;100796.89;103000;1294;62785;-79
2024/02/14 05:30:26;;;;;;;;;;;;;;;21.04;35.95;100805.23;102985;1289;61325;-82
2024/02/14 05:32:52;;;;;;;;;;;;;;;21.04;35.80;100807.70;102931;1292;61398;-80
2024/02/14 05:35:18;;;;;;;;;;;;;;;21.05;35.73;100808.05;102977;1290;61407;-80
2024/02/14 05:37:43;;;;;;;;;;;;;;;21.05;35.60;100811.27;102861;1293;62663;-80
2024/02/14 05:40:09;;;;;;;;;;;;;;;21.05;35.59;100815.54;102886;1291;66105;-80
2024/02/14 05:42:34;;;;;;;;;;;;;;;21.05;35.57;100812.15;103201;1290;61829;-80
2024/02/14 05:45:01;;;;;;;;;;;;;;;21.06;35.58;100821.77;102827;1289;61407;-81
2024/02/14 05:47:27;;;;;;;;;;;;;;;21.05;35.44;100821.09;103036;1296;75329;-80
2024/02/14 05:49:53;;;;;;;;;;;;;;;21.04;35.47;100826.14;103318;1291;61399;-79
2024/02/14 05:52:19;;;;;;;;;;;;;;;21.03;35.27;100830.33;103397;1291;61304;-79
2024/02/14 05:54:45;;;;;;;;;;;;;;;21.02;35.35;100832.20;103821;1292;61318;-79
2024/02/14 05:57:11;;;;;;;;;;;;;;;21.01;35.25;100837.12;104554;1289;61401;-79
2024/02/14 05:59:36;;;;;;;;;;;;;;;21.00;35.32;100837.58;104016;1290;61363;-79
2024/02/14 06:02:05;;;;;;;;;;;;;;;20.98;35.35;100841.24;104832;1291;61412;-80
2024/02/14 06:04:31;;;;;;;;;;;;;;;20.98;35.24;100843.06;105121;1289;61269;-80
2024/02/14 06:06:56;;;;;;;;;;;;;;;20.98;35.46;100847.17;104871;1290;61291;-80
2024/02/14 06:09:22;;;;;;;;;;;;;;;20.99;35.39;100849.25;104606;1290;61411;-79
2024/02/14 06:11:47;;;;;;;;;;;;;;;20.99;35.39;100850.48;104901;1291;61320;-80
2024/02/14 06:14:13;;;;;;;;;;;;;;;21.00;35.28;100855.96;104483;1291;61309;-79
2024/02/14 06:16:40;;;;;;;;;;;;;;;21.01;35.38;100859.33;104606;1291;61178;-81
2024/02/14 06:19:05;;;;;;;;;;;;;;;21.02;35.28;100859.72;104542;1289;59739;-81
2024/02/14 06:21:32;;;;;;;;;;;;;;;21.06;35.25;100861.30;104221;1291;61311;-79
2024/02/14 06:23:59;;;;;;;;;;;;;;;21.10;35.19;100861.88;104474;1290;61473;-81
2024/02/14 06:26:25;;;;;;;;;;;;;;;21.16;35.24;100864.88;104689;1290;61379;-80
2024/02/14 06:28:54;;;;;;;;;;;;;;;21.23;35.18;100867.77;104689;1291;61492;-79
2024/02/14 06:31:21;;;;;;;;;;;;;;;21.29;35.03;100870.73;104578;1291;74449;-80
2024/02/14 06:33:47;;;;;;;;;;;;;;;21.34;35.11;100879.04;105059;1289;61265;-81
2024/02/14 06:36:13;;;;;;;;;;;;;;;21.36;35.01;100881.71;104142;1290;61404;-80
2024/02/14 06:38:39;;;;;;;;;;;;;;;21.36;35.05;100884.04;103987;1293;61397;-80
2024/02/14 06:41:05;;;;;;;;;;;;;;;21.34;34.89;100887.91;103518;1294;61379;-82
2024/02/14 06:43:30;;;;;;;;;;;;;;;21.33;34.97;100890.31;104371;1293;61327;-82
2024/02/14 06:45:56;;;;;;;;;;;;;;;21.32;35.01;100893.65;104594;1293;60134;-80
2024/02/14 06:48:23;;;;;;;;;;;;;;;21.29;34.81;100897.23;104636;1294;60226;-81
2024/02/14 06:50:51;;;;;;;;;;;;;;;21.26;34.94;100898.84;104612;1293;71756;-80
2024/02/14 06:53:19;;;;;;;;;;;;;;;21.24;34.97;100897.95;104637;1293;74490;-80
2024/02/14 06:55:45;;;;;;;;;;;;;;;21.20;34.91;100901.98;104811;1296;61344;-81
2024/02/14 06:58:10;;;;;;;;;;;;;;;21.19;35.14;100904.75;104995;1294;61267;-80
2024/02/14 07:00:36;;;;;;;;;;;;;;;21.20;35.41;100908.07;105092;1291;61364;-81
2024/02/14 07:03:01;;;;;;;;;;;;;;;21.23;35.45;100907.34;104756;1291;63201;-80
2024/02/14 07:05:29;;;;;;;;;;;;;;;21.24;35.52;100907.04;104676;1294;74520;-79
2024/02/14 07:07:54;;;;;;;;;;;;;;;21.26;35.62;100909.59;104693;1294;61725;-79
2024/02/14 07:10:20;;;;;;;;;;;;;;;21.29;35.52;100913.35;104559;1292;61053;-80
2024/02/14 07:12:45;;;;;;;;;;;;;;;21.34;35.38;100919.29;104700;1292;59664;-80
2024/02/14 07:15:11;;;;;;;;;;;;;;;21.38;35.65;100918.80;104770;1293;60515;-82
2024/02/14 07:17:38;;;;;;;;;;;;;;;21.43;35.61;100922.23;104831;1289;63733;-79
2024/02/14 07:20:04;;;;;;;;;;;;;;;21.47;35.54;100925.15;104768;1290;61310;-80
2024/02/14 07:22:34;;;;;;;;;;;;;;;21.51;35.56;100927.55;104470;1292;61216;-79
2024/02/14 07:24:59;;;;;;;;;;;;;;;21.55;35.42;100929.10;104390;1292;61267;-79
2024/02/14 07:27:24;;;;;;;;;;;;;;;21.59;35.63;100936.70;104402;1289;61392;-79
2024/02/14 07:29:50;;;;;;;;;;;;;;;21.63;35.64;100939.66;104030;1295;61274;-79
2024/02/14 07:32:16;;;;;;;;;;;;;;;21.66;35.63;100939.59;104326;1289;61386;-80
2024/02/14 07:34:42;;;;;;;;;;;;;;;21.69;35.77;100943.33;104491;1289;61329;-78
2024/02/14 07:37:08;;;;;;;;;;;;;;;21.71;35.63;100943.38;104679;1291;74959;-80
2024/02/14 07:39:37;;;;;;;;;;;;;;;21.72;35.58;100949.17;104855;1291;59409;-79
2024/02/14 07:42:03;;;;;;;;;;;;;;;21.72;35.69;100951.36;104968;1290;61308;-81
2024/02/14 07:44:28;;;;;;;;;;;;;;;21.71;35.66;100953.23;105129;1290;61419;-81
2024/02/14 07:46:54;;;;;;;;;;;;;;;21.71;35.65;100957.54;104845;1291;61290;-80
2024/02/14 07:49:20;;;;;;;;;;;;;;;21.70;35.68;100961.56;104820;1290;59768;-80
2024/02/14 07:51:47;;;;;;;;;;;;;;;21.68;35.57;100960.58;105073;1289;59658;-81
2024/02/14 07:54:12;;;;;;;;;;;;;;;21.66;35.49;100961.11;104879;1289;61390;-78
2024/02/14 07:56:38;;;;;;;;;;;;;;;21.62;35.66;100961.73;104599;1290;60623;-81
2024/02/14 07:59:05;;;;;;;;;;;;;;;21.58;35.77;100962.38;105101;1294;61315;-81
2024/02/14 08:01:30;;;;;;;;;;;;;;;21.55;35.86;100964.90;105052;1291;59885;-80
2024/02/14 08:03:56;;;;;;;;;;;;;;;21.53;35.90;100966.65;104856;1289;60022;-82
2024/02/14 08:06:21;;;;;;;;;;;;;;;21.52;35.88;100964.90;104798;1291;59670;-81
2024/02/14 08:08:57;;;;;;;;;;;;;;;21.52;36.16;100970.31;104791;1290;60503;-80
2024/02/14 08:11:22;;;;;;;;;;;;;;;21.51;36.05;100970.90;104694;1290;59853;-78
2024/02/14 08:13:48;;;;;;;;;;;;;;;21.51;36.04;100972.32;104587;1290;61293;-80
2024/02/14 08:16:13;;;;;;;;;;;;;;;21.53;35.96;100973.28;104582;1289;61331;-79
2024/02/14 08:18:44;;;;;;;;;;;;;;;21.56;36.05;100975.73;104702;1290;61276;-80
2024/02/14 08:21:10;;;;;;;;;;;;;;;21.59;36.11;100980.58;104748;1290;59719;-80
2024/02/14 08:23:35;;;;;;;;;;;;;;;21.61;36.09;100979.00;104663;1290;61150;-80
2024/02/14 08:26:01;;;;;;;;;;;;;;;21.64;36.07;100984.73;104808;1291;61383;-80
2024/02/14 08:28:27;;;;;;;;;;;;;;;21.66;36.01;100987.81;104873;1291;61462;-79
2024/02/14 08:30:52;;;;;;;;;;;;;;;21.68;36.09;100990.33;104702;1291;61357;-80
2024/02/14 08:33:18;;;;;;;;;;;;;;;21.70;36.06;100995.22;104831;1289;60564;-80
2024/02/14 08:35:43;;;;;;;;;;;;;;;21.72;36.15;100995.09;104498;1291;61375;-79
2024/02/14 08:38:09;;;;;;;;;;;;;;;21.73;36.16;100996.02;104429;1290;59530;-80
2024/02/14 08:40:34;;;;;;;;;;;;;;;21.75;36.27;100996.97;104598;1294;61347;-79
2024/02/14 08:43:00;;;;;;;;;;;;;;;21.77;36.28;100995.26;104567;1291;61420;-80
2024/02/14 08:45:29;;;;;;;;;;;;;;;21.79;36.10;100996.93;104438;1291;70584;-79
2024/02/14 08:47:56;;;;;;;;;;;;;;;21.80;36.27;100999.50;104368;1290;61572;-80
2024/02/14 08:50:21;;;;;;;;;;;;;;;21.82;36.31;100998.16;104431;1289;61314;-79
2024/02/14 08:52:48;;;;;;;;;;;;;;;21.83;36.28;101002.36;104814;1294;61486;-78
2024/02/14 08:55:17;;;;;;;;;;;;;;;21.84;36.32;101001.56;104772;1290;61358;-79
2024/02/14 08:57:43;;;;;;;;;;;;;;;21.85;36.51;101004.73;104608;1290;61069;-78
2024/02/14 09:00:10;;;;;;;;;;;;;;;21.85;36.67;101003.08;104525;1291;61299;-79
2024/02/14 09:02:36;;;;;;;;;;;;;;;21.85;36.78;100997.38;104634;1289;75095;-79
2024/02/14 09:05:05;;;;;;;;;;;;;;;21.86;36.73;101001.09;104817;1289;61323;-78
2024/02/14 09:07:32;;;;;;;;;;;;;;;21.86;36.75;100999.29;105149;1290;61059;-79
2024/02/14 09:09:58;;;;;;;;;;;;;;;21.87;36.83;101004.17;104013;1290;73694;-79
2024/02/14 09:12:24;;;;;;;;;;;;;;;21.88;36.88;101005.04;104182;1290;61696;-80
2024/02/14 09:14:50;;;;;;;;;;;;;;;21.89;36.85;101011.42;104672;1290;61422;-79
2024/02/14 09:17:15;;;;;;;;;;;;;;;21.90;36.84;101015.98;104613;1291;61324;-79
2024/02/14 09:19:41;;;;;;;;;;;;;;;21.92;36.87;101015.53;104334;1291;61273;-80
2024/02/14 09:22:06;;;;;;;;;;;;;;;21.93;36.92;101017.40;104521;1289;61300;-80
2024/02/14 09:24:32;;;;;;;;;;;;;;;21.94;36.83;101017.86;104439;1291;74273;-80
2024/02/14 09:26:58;;;;;;;;;;;;;;;21.95;37.00;101016.54;104254;1291;60430;-79
2024/02/14 09:29:24;;;;;;;;;;;;;;;21.96;36.82;101020.60;104290;1291;61421;-79
2024/02/14 09:31:51;;;;;;;;;;;;;;;21.97;36.95;101019.82;104313;1291;61301;-80
2024/02/14 09:34:19;;;;;;;;;;;;;;;21.98;36.89;101026.04;104331;1290;62434;-80
2024/02/14 09:36:45;;;;;;;;;;;;;;;21.98;36.99;101025.84;104206;1291;62601;-81
2024/02/14 09:39:10;;;;;;;;;;;;;;;21.99;36.94;101024.88;104156;1293;61305;-80
2024/02/14 09:41:40;;;;;;;;;;;;;;;22.00;36.95;101026.42;104488;1291;59408;-80
2024/02/14 09:44:05;;;;;;;;;;;;;;;22.00;36.98;101026.77;104795;1290;75649;-80
2024/02/14 09:46:31;;;;;;;;;;;;;;;22.00;37.04;101025.65;104831;1291;59266;-81
2024/02/14 09:48:56;;;;;;;;;;;;;;;21.99;37.04;101024.67;104953;1290;61324;-80
2024/02/14 09:51:22;;;;;;;;;;;;;;;21.98;36.98;101024.98;104710;1290;61451;-80
2024/02/14 09:53:49;;;;;;;;;;;;;;;21.93;37.07;101024.75;105001;1291;60249;-80
2024/02/14 09:56:18;;;;;;;;;;;;;;;21.86;37.10;101023.83;105227;1291;61351;-79
2024/02/14 09:58:44;;;;;;;;;;;;;;;21.83;37.10;101022.43;105018;1290;61259;-79
2024/02/14 10:01:09;;;;;;;;;;;;;;;21.85;37.50;101024.41;105087;1291;60603;-79
2024/02/14 10:03:36;;;;;;;;;;;;;;;21.86;37.61;101023.83;105009;1292;61080;-80
2024/02/14 10:06:04;;;;;;;;;;;;;;;21.87;37.75;101021.26;105012;1291;61250;-81
2024/02/14 10:08:29;;;;;;;;;;;;;;;21.87;37.86;101022.70;105125;1289;61251;-80
2024/02/14 10:10:56;;;;;;;;;;;;;;;21.84;37.98;101023.20;105350;1290;61278;-81
2024/02/14 10:13:22;;;;;;;;;;;;;;;21.81;37.92;101021.87;105207;1291;61390;-80
2024/02/14 10:15:48;;;;;;;;;;;;;;;21.77;37.91;101024.63;105225;1290;60648;-78
2024/02/14 10:18:15;;;;;;;;;;;;;;;21.77;37.97;101023.56;105223;1289;59666;-79
2024/02/14 10:20:44;;;;;;;;;;;;;;;21.76;37.97;101022.35;105731;1291;59444;-79
2024/02/14 10:23:10;;;;;;;;;;;;;;;21.77;38.03;101017.48;105746;1291;74155;-79
2024/02/14 10:25:36;;;;;;;;;;;;;;;21.78;37.99;101020.66;105830;1291;60469;-80
2024/02/14 10:28:08;;;;;;;;;;;;;;;21.78;37.86;101019.41;105850;1291;59437;-79
2024/02/14 10:30:35;;;;;;;;;;;;;;;21.77;37.92;101016.73;105809;1291;73284;-79
2024/02/14 10:33:03;;;;;;;;;;;;;;;21.79;37.77;101016.27;105780;1291;74904;-79
2024/02/14 10:35:31;;;;;;;;;;;;;;;21.80;37.62;101016.23;105990;1291;60347;-80
2024/02/14 10:38:00;;;;;;;;;;;;;;;21.79;37.59;101016.25;105998;1291;60423;-80
2024/02/14 10:40:27;;;;;;;;;;;;;;;21.79;37.59;101015.20;105860;1290;72333;-80
2024/02/14 10:42:54;;;;;;;;;;;;;;;21.78;37.58;101017.76;105986;1291;75434;-80
2024/02/14 10:45:20;;;;;;;;;;;;;;;21.81;38.01;101016.27;105785;1291;59603;-79
2024/02/14 10:47:48;;;;;;;;;;;;;;;21.85;38.38;101011.85;106044;1291;60329;-80
2024/02/14 10:50:14;;;;;;;;;;;;;;;21.86;38.18;101012.50;105964;1289;72410;-81
2024/02/14 10:52:40;;;;;;;;;;;;;;;21.85;38.14;101012.27;106161;1292;59323;-81
2024/02/14 10:55:06;;;;;;;;;;;;;;;21.82;37.92;101011.90;105946;1290;59111;-80
2024/02/14 10:57:32;;;;;;;;;;;;;;;21.80;37.86;101014.89;106095;1291;59928;-81
2024/02/14 10:59:58;;;;;;;;;;;;;;;21.79;37.90;101013.38;106069;1291;58943;-80
2024/02/14 11:02:24;;;;;;;;;;;;;;;21.78;37.81;101011.50;105756;1291;59930;-82
2024/02/14 11:04:53;;;;;;;;;;;;;;;21.75;37.57;101012.36;105426;1291;60094;-80
2024/02/14 11:07:25;;;;;;;;;;;;;;;21.72;37.75;101009.95;105033;1291;61246;-83
2024/02/14 11:10:01;;;;;;;;;;;;;;;21.70;37.81;101007.20;104934;1291;73250;-84
2024/02/14 11:12:27;;;;;;;;;;;;;;;21.71;38.05;101003.58;105121;1291;74424;-78
2024/02/14 11:14:56;;;;;;;;;;;;;;;21.71;37.98;101004.45;105225;1292;61459;-80
2024/02/14 11:17:27;;;;;;;;;;;;;;;21.71;38.05;101003.92;104764;1291;61461;-80
2024/02/14 11:19:52;;;;;;;;;;;;;;;21.71;38.01;101003.72;105178;1291;72676;-81
2024/02/14 11:22:18;;;;;;;;;;;;;;;21.72;38.11;100996.71;105085;1291;59134;-80
2024/02/14 11:24:47;;;;;;;;;;;;;;;21.72;38.07;100995.27;105022;1289;63749;-80
2024/02/14 11:27:13;;;;;;;;;;;;;;;21.71;37.93;100989.80;105098;1290;59936;-82
2024/02/14 11:29:51;;;;;;;;;;;;;;;21.68;38.03;100991.80;104588;1289;61323;-79
2024/02/14 11:32:17;;;;;;;;;;;;;;;21.64;37.96;100988.46;104611;1294;74618;-80
2024/02/14 11:34:43;;;;;;;;;;;;;;;21.63;38.10;100985.85;104936;1295;61379;-79
2024/02/14 11:37:09;;;;;;;;;;;;;;;21.61;37.83;100987.40;104778;1291;59759;-83
2024/02/14 11:39:35;;;;;;;;;;;;;;;21.63;38.21;100988.54;104832;1291;61317;-80
2024/02/14 11:42:00;;;;;;;;;;;;;;;21.68;38.58;100989.63;105055;1292;59437;-81
2024/02/14 11:44:26;;;;;;;;;;;;;;;21.71;38.76;100989.59;105110;1289;59141;-81
2024/02/14 11:46:51;;;;;;;;;;;;;;;21.75;38.83;100989.86;105224;1291;60030;-81
2024/02/14 11:49:17;;;;;;;;;;;;;;;21.74;38.72;100985.56;104958;1290;61320;-81
2024/02/14 11:51:42;;;;;;;;;;;;;;;21.75;38.68;100984.44;104948;1290;60075;-79
2024/02/14 11:54:08;;;;;;;;;;;;;;;21.79;38.71;100987.43;104810;1291;61483;-79
2024/02/14 11:56:34;;;;;;;;;;;;;;;21.80;38.71;100985.94;104796;1291;60165;-79
2024/02/14 11:59:02;;;;;;;;;;;;;;;21.81;38.62;100986.20;104493;1289;60464;-80
2024/02/14 12:01:28;;;;;;;;;;;;;;;21.82;38.61;100986.14;104785;1293;61124;-80
2024/02/14 12:03:54;;;;;;;;;;;;;;;21.82;38.42;100984.89;105069;1293;59947;-80
2024/02/14 12:06:19;;;;;;;;;;;;;;;21.74;38.08;100988.31;104584;1291;60587;-81
2024/02/14 12:08:45;;;;;;;;;;;;;;;21.62;38.07;100987.19;104855;1292;61451;-83
2024/02/14 12:11:10;;;;;;;;;;;;;;;21.56;38.12;100986.72;105137;1289;61174;-79
2024/02/14 12:13:37;;;;;;;;;;;;;;;21.51;37.98;100985.42;104948;1289;59571;-79
2024/02/14 12:16:05;;;;;;;;;;;;;;;21.49;38.08;100987.34;104729;1293;74051;-80
2024/02/14 12:18:31;;;;;;;;;;;;;;;21.49;38.08;100989.14;104790;1291;61489;-78
2024/02/14 12:21:05;;;;;;;;;;;;;;;21.51;38.11;100990.77;105168;1288;60373;-80